createdAt,value
2018-11-02T00:00:56.372Z,3.37
2018-11-02T00:01:59.781Z,3.58
2018-11-02T00:03:03.293Z,3.60
2018-11-02T00:04:06.744Z,3.60
2018-11-02T00:05:10.192Z,3.40
2018-11-02T00:06:13.594Z,3.12
2018-11-02T00:07:16.992Z,2.92
2018-11-02T00:08:20.437Z,2.80
2018-11-02T00:09:23.884Z,2.50
2018-11-02T00:10:27.292Z,2.60
2018-11-02T00:11:30.723Z,2.40
2018-11-02T00:12:34.173Z,2.25
2018-11-02T00:13:37.529Z,2.50
2018-11-02T00:14:41.000Z,2.00
2018-11-02T00:15:44.428Z,2.47
2018-11-02T00:16:48.760Z,2.20
2018-11-02T00:17:52.201Z,1.90
2018-11-02T00:18:55.632Z,1.82
2018-11-02T00:19:59.085Z,1.52
2018-11-02T00:21:02.552Z,1.77
2018-11-02T00:22:06.411Z,1.77
2018-11-02T00:23:09.856Z,1.87
2018-11-02T00:24:13.386Z,1.85
2018-11-02T00:25:16.832Z,1.80
2018-11-02T00:26:20.273Z,1.50
2018-11-02T00:27:23.667Z,1.60
2018-11-02T00:28:27.126Z,1.75
2018-11-02T00:29:31.873Z,1.70
2018-11-02T00:30:35.339Z,1.77
2018-11-02T00:31:38.739Z,1.72
2018-11-02T00:32:42.865Z,1.60
2018-11-02T00:33:46.257Z,1.82
2018-11-02T00:34:49.699Z,1.37
2018-11-02T00:35:53.171Z,1.40
2018-11-02T00:36:56.574Z,1.50
2018-11-02T00:37:59.989Z,1.50
2018-11-02T00:39:03.417Z,1.60
2018-11-02T00:40:08.461Z,1.60
2018-11-02T00:41:11.883Z,1.30
2018-11-02T00:42:15.288Z,1.57
2018-11-02T00:43:18.687Z,1.50
2018-11-02T00:44:22.073Z,1.40
2018-11-02T00:45:25.485Z,1.40
2018-11-02T00:46:28.940Z,1.27
2018-11-02T00:47:32.333Z,0.90
2018-11-02T00:48:35.777Z,1.35
2018-11-02T00:49:39.164Z,1.07
2018-11-02T00:50:42.542Z,1.00
2018-11-02T00:51:45.944Z,0.98
2018-11-02T00:52:49.360Z,0.90
2018-11-02T00:53:52.852Z,1.00
2018-11-02T00:54:56.289Z,0.85
2018-11-02T00:55:59.697Z,0.88
2018-11-02T00:57:03.232Z,0.82
2018-11-02T00:58:06.766Z,1.10
2018-11-02T00:59:10.169Z,1.10
2018-11-02T01:00:14.780Z,0.80
2018-11-02T01:01:18.193Z,1.02
2018-11-02T01:02:21.723Z,1.07
2018-11-02T01:03:25.200Z,1.20
2018-11-02T01:04:28.585Z,1.05
2018-11-02T01:05:32.004Z,1.30
2018-11-02T01:06:35.406Z,1.10
2018-11-02T01:07:39.075Z,0.90
2018-11-02T01:08:42.550Z,0.93
2018-11-02T01:09:45.923Z,1.10
2018-11-02T01:10:49.292Z,1.10
2018-11-02T01:11:52.700Z,0.95
2018-11-02T01:12:56.154Z,1.30
2018-11-02T01:13:59.552Z,1.30
2018-11-02T01:15:02.938Z,1.12
2018-11-02T01:16:06.444Z,1.10
2018-11-02T01:17:09.835Z,0.90
2018-11-02T01:18:13.427Z,1.00
2018-11-02T01:19:16.828Z,0.82
2018-11-02T01:20:20.224Z,1.20
2018-11-02T01:21:23.616Z,0.80
2018-11-02T01:22:26.976Z,0.88
2018-11-02T01:23:30.360Z,0.90
2018-11-02T01:24:33.932Z,1.20
2018-11-02T01:25:37.344Z,1.00
2018-11-02T01:26:40.749Z,1.30
2018-11-02T01:27:44.187Z,1.07
2018-11-02T01:28:47.646Z,1.00
2018-11-02T01:29:51.016Z,1.07
2018-11-02T01:30:54.423Z,1.02
2018-11-02T01:31:58.138Z,1.00
2018-11-02T01:33:01.546Z,1.32
2018-11-02T01:34:05.110Z,1.15
2018-11-02T01:35:08.817Z,1.17
2018-11-02T01:36:12.226Z,1.17
2018-11-02T01:37:15.673Z,1.20
2018-11-02T01:38:19.284Z,0.95
2018-11-02T01:39:22.745Z,1.12
2018-11-02T01:40:26.163Z,0.90
2018-11-02T01:41:29.558Z,1.20
2018-11-02T01:42:32.947Z,0.90
2018-11-02T01:43:36.321Z,0.98
2018-11-02T01:44:46.475Z,1.20
2018-11-02T01:45:50.245Z,1.20
2018-11-02T01:46:53.631Z,0.90
2018-11-02T01:47:57.004Z,1.00
2018-11-02T01:49:00.620Z,1.10
2018-11-02T01:50:04.090Z,1.40
2018-11-02T01:51:07.477Z,1.12
2018-11-02T01:52:10.893Z,1.20
2018-11-02T01:53:14.284Z,1.20
2018-11-02T01:54:17.681Z,1.60
2018-11-02T01:55:21.102Z,1.60
2018-11-02T01:56:24.668Z,1.87
2018-11-02T01:57:28.095Z,1.32
2018-11-02T01:58:31.523Z,1.50
2018-11-02T01:59:34.913Z,1.60
2018-11-02T02:00:38.374Z,1.98
2018-11-02T02:01:41.800Z,2.00
2018-11-02T02:02:45.197Z,1.70
2018-11-02T02:03:48.639Z,1.70
2018-11-02T02:04:52.040Z,1.57
2018-11-02T02:05:55.443Z,1.60
2018-11-02T02:06:58.876Z,1.50
2018-11-02T02:08:02.288Z,1.25
2018-11-02T02:09:08.564Z,1.30
2018-11-02T02:10:11.973Z,1.45
2018-11-02T02:11:15.429Z,1.20
2018-11-02T02:12:18.812Z,1.02
2018-11-02T02:13:22.441Z,1.60
2018-11-02T02:14:25.753Z,1.40
2018-11-02T02:15:29.140Z,1.00
2018-11-02T02:16:32.580Z,1.07
2018-11-02T02:17:36.027Z,1.50
2018-11-02T02:18:39.637Z,1.50
2018-11-02T02:19:43.820Z,1.35
2018-11-02T02:20:47.215Z,1.00
2018-11-02T02:21:50.665Z,1.15
2018-11-02T02:22:54.088Z,1.12
2018-11-02T02:23:57.501Z,0.80
2018-11-02T02:25:00.896Z,0.80
2018-11-02T02:26:04.277Z,0.85
2018-11-02T02:27:07.924Z,0.98
2018-11-02T02:28:11.286Z,0.82
2018-11-02T02:29:14.836Z,1.20
2018-11-02T02:30:18.242Z,1.00
2018-11-02T02:31:21.627Z,1.22
2018-11-02T02:32:25.031Z,1.20
2018-11-02T02:33:28.431Z,0.80
2018-11-02T02:34:31.868Z,0.90
2018-11-02T02:35:35.265Z,1.07
2018-11-02T02:36:38.693Z,1.12
2018-11-02T02:37:42.120Z,1.10
2018-11-02T02:38:45.528Z,1.10
2018-11-02T02:39:48.911Z,1.10
2018-11-02T02:40:52.313Z,1.17
2018-11-02T02:41:55.743Z,1.02
2018-11-02T02:42:59.121Z,1.10
2018-11-02T02:44:02.597Z,1.35
2018-11-02T02:45:07.325Z,1.30
2018-11-02T02:46:10.704Z,0.80
2018-11-02T02:47:14.128Z,1.20
2018-11-02T02:48:17.585Z,1.40
2018-11-02T02:49:20.963Z,1.12
2018-11-02T02:50:24.452Z,1.32
2018-11-02T02:51:27.839Z,1.20
2018-11-02T02:52:31.285Z,1.05
2018-11-02T02:53:34.780Z,1.12
2018-11-02T02:54:38.172Z,1.00
2018-11-02T02:55:41.596Z,1.35
2018-11-02T02:56:45.048Z,1.20
2018-11-02T02:57:48.473Z,1.20
2018-11-02T02:58:52.315Z,1.05
2018-11-02T02:59:55.730Z,1.27
2018-11-02T03:00:59.101Z,1.40
2018-11-02T03:02:02.493Z,1.35
2018-11-02T03:03:06.348Z,1.50
2018-11-02T03:04:09.836Z,1.40
2018-11-02T03:05:13.233Z,1.20
2018-11-02T03:06:16.626Z,1.30
2018-11-02T03:07:20.062Z,1.45
2018-11-02T03:08:23.450Z,1.10
2018-11-02T03:09:26.868Z,1.22
2018-11-02T03:10:30.362Z,1.25
2018-11-02T03:11:33.732Z,1.75
2018-11-02T03:12:37.396Z,1.20
2018-11-02T03:13:40.800Z,1.32
2018-11-02T03:14:44.305Z,1.57
2018-11-02T03:15:47.711Z,1.87
2018-11-02T03:16:51.166Z,1.60
2018-11-02T03:17:54.567Z,1.55
2018-11-02T03:18:57.974Z,1.42
2018-11-02T03:20:01.386Z,1.80
2018-11-02T03:21:05.005Z,2.27
2018-11-02T03:22:08.440Z,1.92
2018-11-02T03:23:11.845Z,1.90
2018-11-02T03:24:15.285Z,1.92
2018-11-02T03:25:18.834Z,1.98
2018-11-02T03:26:22.276Z,1.82
2018-11-02T03:27:25.840Z,1.95
2018-11-02T03:28:29.280Z,2.12
2018-11-02T03:29:32.779Z,1.90
2018-11-02T03:30:36.243Z,2.00
2018-11-02T03:31:39.988Z,2.22
2018-11-02T03:32:43.427Z,1.92
2018-11-02T03:33:46.835Z,1.92
2018-11-02T03:34:50.224Z,2.00
2018-11-02T03:35:53.676Z,2.10
2018-11-02T03:36:57.122Z,2.00
2018-11-02T03:38:00.499Z,2.10
2018-11-02T03:39:04.816Z,1.70
2018-11-02T03:40:09.257Z,2.05
2018-11-02T03:41:12.676Z,1.90
2018-11-02T03:42:16.092Z,1.92
2018-11-02T03:43:19.568Z,1.70
2018-11-02T03:44:23.004Z,1.98
2018-11-02T03:45:26.388Z,1.72
2018-11-02T03:46:29.828Z,2.20
2018-11-02T03:47:33.216Z,2.17
2018-11-02T03:48:36.644Z,2.12
2018-11-02T03:49:40.019Z,1.90
2018-11-02T03:50:43.453Z,1.90
2018-11-02T03:51:46.854Z,1.60
2018-11-02T03:52:50.251Z,1.92
2018-11-02T03:53:53.791Z,2.12
2018-11-02T03:54:57.820Z,1.85
2018-11-02T03:56:01.275Z,2.20
2018-11-02T03:57:05.158Z,1.87
2018-11-02T03:58:08.589Z,2.20
2018-11-02T03:59:12.420Z,2.20
2018-11-02T04:00:15.836Z,2.33
2018-11-02T04:01:19.223Z,2.60
2018-11-02T04:02:22.621Z,2.17
2018-11-02T04:03:26.065Z,2.60
2018-11-02T04:04:29.478Z,2.35
2018-11-02T04:05:32.868Z,2.65
2018-11-02T04:06:36.309Z,2.47
2018-11-02T04:07:39.701Z,2.72
2018-11-02T04:08:43.097Z,2.80
2018-11-02T04:09:46.526Z,2.90
2018-11-02T04:10:49.894Z,2.80
2018-11-02T04:11:53.315Z,2.80
2018-11-02T04:12:56.697Z,2.87
2018-11-02T04:14:00.081Z,3.10
2018-11-02T04:15:03.667Z,3.55
2018-11-02T04:16:07.063Z,3.20
2018-11-02T04:17:10.512Z,2.92
2018-11-02T04:18:13.924Z,3.10
2018-11-02T04:19:17.345Z,2.72
2018-11-02T04:20:20.744Z,3.58
2018-11-02T04:21:24.185Z,2.95
2018-11-02T04:22:27.656Z,3.55
2018-11-02T04:23:31.125Z,3.50
2018-11-02T04:24:34.678Z,3.85
2018-11-02T04:25:38.101Z,3.70
2018-11-02T04:26:41.567Z,3.72
2018-11-02T04:27:44.998Z,3.33
2018-11-02T04:28:48.391Z,3.85
2018-11-02T04:29:51.884Z,3.33
2018-11-02T04:30:55.344Z,3.47
2018-11-02T04:31:58.686Z,3.77
2018-11-02T04:33:02.093Z,4.22
2018-11-02T04:34:05.703Z,3.65
2018-11-02T04:35:09.591Z,3.58
2018-11-02T04:36:12.972Z,4.12
2018-11-02T04:37:16.357Z,4.05
2018-11-02T04:38:19.788Z,3.92
2018-11-02T04:39:23.176Z,3.72
2018-11-02T04:40:26.566Z,4.10
2018-11-02T04:41:29.968Z,3.70
2018-11-02T04:42:33.396Z,3.98
2018-11-02T04:43:36.829Z,4.15
2018-11-02T04:44:40.261Z,3.80
2018-11-02T04:45:43.649Z,4.03
2018-11-02T04:46:47.067Z,3.90
2018-11-02T04:47:50.464Z,3.83
2018-11-02T04:48:53.902Z,3.87
2018-11-02T04:49:57.315Z,3.95
2018-11-02T04:51:00.748Z,3.98
2018-11-02T04:52:04.382Z,3.52
2018-11-02T04:53:07.793Z,3.80
2018-11-02T04:54:11.239Z,3.50
2018-11-02T04:55:14.645Z,3.92
2018-11-02T04:56:18.035Z,3.92
2018-11-02T04:57:21.455Z,4.00
2018-11-02T04:58:24.992Z,4.80
2018-11-02T04:59:28.397Z,4.10
2018-11-02T05:00:32.397Z,4.40
2018-11-02T05:01:35.806Z,4.78
2018-11-02T05:02:39.364Z,5.05
2018-11-02T05:03:42.756Z,4.60
2018-11-02T05:04:46.216Z,5.15
2018-11-02T05:05:49.596Z,4.65
2018-11-02T05:06:52.984Z,4.60
2018-11-02T05:07:56.574Z,4.55
2018-11-02T05:08:59.988Z,5.28
2018-11-02T05:10:03.526Z,4.42
2018-11-02T05:11:06.978Z,4.72
2018-11-02T05:12:10.348Z,4.62
2018-11-02T05:13:13.758Z,4.45
2018-11-02T05:14:17.147Z,4.72
2018-11-02T05:15:20.584Z,4.85
2018-11-02T05:16:23.977Z,5.00
2018-11-02T05:17:27.362Z,4.90
2018-11-02T05:18:30.740Z,4.83
2018-11-02T05:19:34.186Z,4.53
2018-11-02T05:20:37.596Z,4.78
2018-11-02T05:21:40.988Z,5.80
2018-11-02T05:22:44.379Z,5.47
2018-11-02T05:23:47.773Z,4.65
2018-11-02T05:24:51.150Z,4.62
2018-11-02T05:25:54.572Z,4.50
2018-11-02T05:26:57.967Z,5.22
2018-11-02T05:28:01.365Z,6.20
2018-11-02T05:29:05.196Z,4.85
2018-11-02T05:30:09.548Z,4.37
2018-11-02T05:31:13.832Z,4.97
2018-11-02T05:32:17.242Z,4.58
2018-11-02T05:33:20.682Z,5.00
2018-11-02T05:34:24.071Z,4.47
2018-11-02T05:35:27.472Z,4.30
2018-11-02T05:36:30.889Z,5.05
2018-11-02T05:37:34.349Z,5.33
2018-11-02T05:38:37.736Z,5.35
2018-11-02T05:39:41.238Z,6.33
2018-11-02T05:40:44.533Z,5.72
2018-11-02T05:41:47.945Z,5.45
2018-11-02T05:42:51.347Z,4.72
2018-11-02T05:43:54.735Z,5.53
2018-11-02T05:44:58.120Z,4.83
2018-11-02T05:46:01.530Z,5.45
2018-11-02T05:47:05.449Z,6.33
2018-11-02T05:48:08.871Z,6.05
2018-11-02T05:49:12.311Z,5.22
2018-11-02T05:50:15.711Z,5.10
2018-11-02T05:51:19.104Z,6.00
2018-11-02T05:52:22.526Z,5.95
2018-11-02T05:53:25.993Z,8.05
2018-11-02T05:54:29.381Z,5.72
2018-11-02T05:55:32.821Z,5.62
2018-11-02T05:56:36.219Z,6.47
2018-11-02T05:57:39.687Z,5.62
2018-11-02T05:58:43.065Z,5.17
2018-11-02T05:59:46.542Z,5.03
2018-11-02T06:00:49.997Z,4.22
2018-11-02T06:01:53.425Z,4.97
2018-11-02T06:02:56.844Z,5.28
2018-11-02T06:04:00.302Z,5.70
2018-11-02T06:05:03.788Z,5.37
2018-11-02T06:06:07.175Z,6.30
2018-11-02T06:07:10.556Z,5.85
2018-11-02T06:08:13.985Z,6.78
2018-11-02T06:09:17.389Z,5.87
2018-11-02T06:10:20.817Z,6.35
2018-11-02T06:11:24.240Z,6.67
2018-11-02T06:12:27.692Z,6.05
2018-11-02T06:13:31.129Z,5.75
2018-11-02T06:14:34.717Z,6.08
2018-11-02T06:15:38.139Z,5.40
2018-11-02T06:16:41.591Z,6.03
2018-11-02T06:17:44.945Z,5.50
2018-11-02T06:18:48.355Z,6.65
2018-11-02T06:19:51.745Z,5.90
2018-11-02T06:20:55.171Z,5.92
2018-11-02T06:21:58.732Z,5.97
2018-11-02T06:23:02.144Z,5.72
2018-11-02T06:24:05.647Z,6.20
2018-11-02T06:25:09.027Z,6.45
2018-11-02T06:26:12.432Z,6.53
2018-11-02T06:27:15.871Z,9.45
2018-11-02T06:28:19.250Z,6.95
2018-11-02T06:29:22.661Z,6.47
2018-11-02T06:30:26.130Z,6.22
2018-11-02T06:31:29.534Z,5.67
2018-11-02T06:32:32.970Z,5.10
2018-11-02T06:33:36.316Z,6.42
2018-11-02T06:34:39.736Z,5.80
2018-11-02T06:35:43.170Z,6.45
2018-11-02T06:36:46.572Z,5.58
2018-11-02T06:37:49.962Z,6.10
2018-11-02T06:38:53.525Z,6.70
2018-11-02T06:39:56.884Z,6.28
2018-11-02T06:41:00.264Z,6.53
2018-11-02T06:42:03.720Z,7.58
2018-11-02T06:43:07.911Z,6.95
2018-11-02T06:44:11.259Z,6.72
2018-11-02T06:45:14.735Z,6.47
2018-11-02T06:46:18.069Z,8.08
2018-11-02T06:47:21.536Z,8.08
2018-11-02T06:48:24.883Z,7.97
2018-11-02T06:49:28.411Z,6.85
2018-11-02T06:50:31.824Z,6.78
2018-11-02T06:51:35.316Z,7.33
2018-11-02T06:52:38.715Z,7.12
2018-11-02T06:53:42.102Z,6.42
2018-11-02T06:54:45.576Z,6.47
2018-11-02T06:55:49.028Z,6.30
2018-11-02T06:56:52.493Z,5.72
2018-11-02T06:57:55.881Z,6.65
2018-11-02T06:58:59.351Z,6.10
2018-11-02T07:00:03.158Z,7.00
2018-11-02T07:01:06.420Z,6.40
2018-11-02T07:02:09.905Z,6.22
2018-11-02T07:03:13.317Z,6.47
2018-11-02T07:04:16.736Z,6.25
2018-11-02T07:05:20.151Z,6.40
2018-11-02T07:06:23.576Z,6.65
2018-11-02T07:07:27.110Z,6.67
2018-11-02T07:08:30.444Z,6.10
2018-11-02T07:09:33.757Z,6.17
2018-11-02T07:10:37.153Z,5.70
2018-11-02T07:11:40.625Z,5.33
2018-11-02T07:12:44.077Z,5.17
2018-11-02T07:13:47.485Z,6.62
2018-11-02T07:14:50.868Z,6.10
2018-11-02T07:15:54.245Z,6.10
2018-11-02T07:16:57.700Z,5.60
2018-11-02T07:18:01.106Z,5.47
2018-11-02T07:19:04.536Z,6.67
2018-11-02T07:20:08.007Z,5.97
2018-11-02T07:21:11.417Z,6.05
2018-11-02T07:22:14.856Z,6.17
2018-11-02T07:23:18.273Z,5.85
2018-11-02T07:24:21.755Z,6.30
2018-11-02T07:25:25.190Z,6.45
2018-11-02T07:26:28.587Z,7.03
2018-11-02T07:27:32.016Z,6.37
2018-11-02T07:28:35.388Z,6.03
2018-11-02T07:29:38.903Z,6.00
2018-11-02T07:30:42.346Z,6.12
2018-11-02T07:31:45.756Z,5.50
2018-11-02T07:32:49.949Z,6.10
2018-11-02T07:33:53.347Z,6.00
2018-11-02T07:34:56.735Z,7.05
2018-11-02T07:36:00.128Z,6.40
2018-11-02T07:37:03.616Z,6.00
2018-11-02T07:38:07.140Z,6.28
2018-11-02T07:39:11.107Z,5.78
2018-11-02T07:40:14.541Z,5.87
2018-11-02T07:41:17.967Z,6.12
2018-11-02T07:42:21.363Z,6.03
2018-11-02T07:43:24.855Z,5.75
2018-11-02T07:44:28.589Z,5.75
2018-11-02T07:45:32.004Z,6.37
2018-11-02T07:46:35.388Z,7.30
2018-11-02T07:47:39.092Z,6.55
2018-11-02T07:48:42.452Z,6.17
2018-11-02T07:49:46.643Z,5.70
2018-11-02T07:50:49.994Z,6.20
2018-11-02T07:51:53.475Z,6.17
2018-11-02T07:52:56.911Z,6.03
2018-11-02T07:54:00.313Z,6.10
2018-11-02T07:55:03.740Z,6.35
2018-11-02T07:56:07.127Z,5.80
2018-11-02T07:57:10.520Z,6.20
2018-11-02T07:58:13.962Z,5.70
2018-11-02T07:59:17.391Z,6.17
2018-11-02T08:00:20.837Z,6.25
2018-11-02T08:01:24.460Z,5.85
2018-11-02T08:02:27.865Z,6.22
2018-11-02T08:03:31.336Z,5.70
2018-11-02T08:04:34.798Z,6.83
2018-11-02T08:05:38.200Z,6.53
2018-11-02T08:06:41.733Z,6.65
2018-11-02T08:07:45.178Z,6.55
2018-11-02T08:08:48.608Z,6.67
2018-11-02T08:09:53.476Z,6.08
2018-11-02T08:10:56.921Z,5.65
2018-11-02T08:12:00.324Z,6.15
2018-11-02T08:13:03.722Z,6.15
2018-11-02T08:14:07.368Z,11.25
2018-11-02T08:15:11.994Z,5.78
2018-11-02T08:16:15.406Z,5.40
2018-11-02T08:17:18.780Z,5.70
2018-11-02T08:18:22.199Z,5.47
2018-11-02T08:19:25.639Z,5.85
2018-11-02T08:20:29.164Z,6.90
2018-11-02T08:21:32.601Z,6.90
2018-11-02T08:22:36.015Z,6.08
2018-11-02T08:23:39.415Z,5.70
2018-11-02T08:24:42.895Z,5.95
2018-11-02T08:25:46.209Z,6.35
2018-11-02T08:26:49.619Z,5.85
2018-11-02T08:27:53.021Z,5.90
2018-11-02T08:28:56.404Z,5.97
2018-11-02T08:29:59.807Z,5.65
2018-11-02T08:31:03.347Z,5.45
2018-11-02T08:32:06.890Z,6.10
2018-11-02T08:33:10.249Z,5.60
2018-11-02T08:34:14.100Z,5.50
2018-11-02T08:35:17.490Z,6.90
2018-11-02T08:36:20.933Z,5.53
2018-11-02T08:37:24.376Z,5.40
2018-11-02T08:38:27.814Z,5.42
2018-11-02T08:39:31.191Z,5.85
2018-11-02T08:40:34.753Z,5.72
2018-11-02T08:41:38.240Z,5.22
2018-11-02T08:42:42.109Z,5.35
2018-11-02T08:43:45.484Z,12.85
2018-11-02T08:44:48.913Z,7.58
2018-11-02T08:45:52.316Z,7.95
2018-11-02T08:46:55.741Z,7.75
2018-11-02T08:47:59.155Z,5.72
2018-11-02T08:49:02.568Z,6.15
2018-11-02T08:50:07.359Z,5.20
2018-11-02T08:51:10.891Z,5.58
2018-11-02T08:52:14.468Z,5.47
2018-11-02T08:53:17.929Z,6.42
2018-11-02T08:54:21.492Z,5.78
2018-11-02T08:55:25.037Z,5.67
2018-11-02T08:56:28.475Z,5.67
2018-11-02T08:57:31.931Z,6.62
2018-11-02T08:58:35.650Z,6.42
2018-11-02T08:59:39.200Z,6.05
2018-11-02T09:00:42.560Z,6.62
2018-11-02T09:01:45.957Z,5.35
2018-11-02T09:02:49.357Z,6.33
2018-11-02T09:03:52.791Z,6.00
2018-11-02T09:04:56.224Z,5.83
2018-11-02T09:05:59.812Z,5.92
2018-11-02T09:07:03.220Z,5.47
2018-11-02T09:08:06.672Z,5.65
2018-11-02T09:09:10.793Z,5.85
2018-11-02T09:10:14.176Z,6.42
2018-11-02T09:11:17.542Z,5.95
2018-11-02T09:12:20.924Z,5.62
2018-11-02T09:13:24.399Z,6.10
2018-11-02T09:14:28.864Z,6.20
2018-11-02T09:15:32.285Z,5.37
2018-11-02T09:16:35.707Z,5.80
2018-11-02T09:17:39.076Z,5.47
2018-11-02T09:18:42.577Z,5.60
2018-11-02T09:19:46.020Z,6.78
2018-11-02T09:20:49.417Z,6.22
2018-11-02T09:21:52.945Z,6.70
2018-11-02T09:22:56.308Z,5.87
2018-11-02T09:23:59.776Z,6.20
2018-11-02T09:25:03.205Z,6.40
2018-11-02T09:26:06.915Z,5.83
2018-11-02T09:27:10.308Z,6.03
2018-11-02T09:28:13.733Z,5.58
2018-11-02T09:29:17.119Z,5.35
2018-11-02T09:30:20.513Z,5.83
2018-11-02T09:31:24.477Z,5.78
2018-11-02T09:32:27.842Z,5.85
2018-11-02T09:33:31.229Z,6.03
2018-11-02T09:34:34.752Z,6.58
2018-11-02T09:35:38.173Z,5.70
2018-11-02T09:36:41.612Z,6.08
2018-11-02T09:37:45.082Z,6.08
2018-11-02T09:38:48.481Z,5.58
2018-11-02T09:39:51.896Z,5.70
2018-11-02T09:40:55.325Z,5.90
2018-11-02T09:41:58.729Z,5.65
2018-11-02T09:43:02.155Z,5.92
2018-11-02T09:44:06.100Z,5.70
2018-11-02T09:45:11.748Z,5.95
2018-11-02T09:46:15.159Z,6.03
2018-11-02T09:47:18.651Z,5.80
2018-11-02T09:48:22.224Z,5.87
2018-11-02T09:49:25.644Z,6.17
2018-11-02T09:50:29.082Z,5.78
2018-11-02T09:51:32.597Z,6.03
2018-11-02T09:52:36.674Z,5.05
2018-11-02T09:53:40.073Z,6.03
2018-11-02T09:54:43.505Z,6.17
2018-11-02T09:55:46.936Z,6.22
2018-11-02T09:56:50.523Z,5.53
2018-11-02T09:57:54.985Z,5.55
2018-11-02T09:58:58.407Z,5.70
2018-11-02T10:00:01.853Z,6.53
2018-11-02T10:01:05.896Z,5.90
2018-11-02T10:02:09.390Z,6.30
2018-11-02T10:03:12.727Z,5.75
2018-11-02T10:04:16.132Z,6.20
2018-11-02T10:05:20.215Z,6.60
2018-11-02T10:06:23.628Z,6.92
2018-11-02T10:07:27.024Z,6.78
2018-11-02T10:08:30.517Z,6.03
2018-11-02T10:09:33.859Z,6.37
2018-11-02T10:10:37.840Z,6.17
2018-11-02T10:11:41.272Z,9.30
2018-11-02T10:12:44.664Z,8.60
2018-11-02T10:13:48.155Z,7.90
2018-11-02T10:14:51.548Z,6.95
2018-11-02T10:15:55.017Z,6.22
2018-11-02T10:16:58.444Z,6.28
2018-11-02T10:18:01.873Z,5.75
2018-11-02T10:19:05.513Z,5.90
2018-11-02T10:20:09.616Z,6.60
2018-11-02T10:21:12.997Z,7.05
2018-11-02T10:22:16.456Z,5.80
2018-11-02T10:23:19.873Z,5.75
2018-11-02T10:24:23.261Z,6.17
2018-11-02T10:25:26.642Z,6.45
2018-11-02T10:26:30.029Z,5.80
2018-11-02T10:27:33.495Z,6.40
2018-11-02T10:28:37.207Z,6.15
2018-11-02T10:29:40.709Z,6.05
2018-11-02T10:30:44.123Z,6.08
2018-11-02T10:31:47.532Z,6.65
2018-11-02T10:32:54.276Z,6.72
2018-11-02T10:33:57.664Z,6.95
2018-11-02T10:35:01.498Z,6.20
2018-11-02T10:36:06.089Z,6.53
2018-11-02T10:37:09.461Z,6.45
2018-11-02T10:38:12.868Z,6.55
2018-11-02T10:39:16.244Z,6.97
2018-11-02T10:40:19.687Z,6.95
2018-11-02T10:41:30.836Z,6.35
2018-11-02T10:42:34.223Z,6.25
2018-11-02T10:43:37.660Z,6.95
2018-11-02T10:44:43.480Z,6.03
2018-11-02T10:45:47.598Z,6.60
2018-11-02T10:46:50.996Z,6.20
2018-11-02T10:47:54.425Z,6.40
2018-11-02T10:48:57.893Z,6.45
2018-11-02T10:50:01.309Z,6.80
2018-11-02T10:51:05.046Z,8.80
2018-11-02T10:52:08.415Z,7.95
2018-11-02T10:53:11.884Z,6.85
2018-11-02T10:54:15.371Z,6.53
2018-11-02T10:55:19.503Z,6.12
2018-11-02T10:56:22.915Z,6.60
2018-11-02T10:57:26.312Z,6.70
2018-11-02T10:58:29.708Z,6.45
2018-11-02T10:59:33.210Z,6.15
2018-11-02T11:01:44.837Z,6.92
2018-11-02T11:02:48.287Z,6.30
2018-11-02T11:03:51.718Z,6.60
2018-11-02T11:04:55.120Z,6.15
2018-11-02T11:05:58.532Z,6.15
2018-11-02T11:07:01.996Z,6.60
2018-11-02T11:08:05.371Z,6.10
2018-11-02T11:09:11.045Z,6.25
2018-11-02T11:10:14.477Z,6.00
2018-11-02T11:11:17.897Z,6.15
2018-11-02T11:12:21.407Z,6.40
2018-11-02T11:13:25.192Z,7.03
2018-11-02T11:14:28.340Z,8.53
2018-11-02T11:15:32.969Z,7.05
2018-11-02T11:16:36.388Z,6.40
2018-11-02T11:17:39.785Z,6.37
2018-11-02T11:18:43.169Z,6.97
2018-11-02T11:19:46.626Z,6.78
2018-11-02T11:20:50.032Z,6.65
2018-11-02T11:21:53.437Z,6.30
2018-11-02T11:22:56.855Z,6.83
2018-11-02T11:24:00.266Z,7.83
2018-11-02T11:25:03.736Z,13.35
2018-11-02T11:26:07.171Z,8.90
2018-11-02T11:27:10.552Z,9.20
2018-11-02T11:28:13.959Z,6.55
2018-11-02T11:29:17.367Z,6.90
2018-11-02T11:30:21.128Z,6.55
2018-11-02T11:31:24.652Z,6.47
2018-11-02T11:32:28.034Z,6.83
2018-11-02T11:33:31.421Z,6.95
2018-11-02T11:34:34.867Z,6.58
2018-11-02T11:35:38.315Z,7.05
2018-11-02T11:36:41.730Z,5.67
2018-11-02T11:37:45.424Z,6.28
2018-11-02T11:38:48.733Z,6.50
2018-11-02T11:39:52.270Z,5.87
2018-11-02T11:40:55.574Z,5.97
2018-11-02T11:41:58.982Z,5.72
2018-11-02T11:43:02.430Z,6.42
2018-11-02T11:44:05.836Z,6.17
2018-11-02T11:45:13.116Z,6.62
2018-11-02T11:46:16.632Z,5.70
2018-11-02T11:47:20.080Z,6.17
2018-11-02T11:48:23.496Z,6.05
2018-11-02T11:49:26.901Z,5.87
2018-11-02T11:50:30.452Z,5.87
2018-11-02T11:51:33.904Z,5.83
2018-11-02T11:52:37.431Z,5.45
2018-11-02T11:53:40.803Z,5.35
2018-11-02T11:54:44.217Z,5.65
2018-11-02T11:55:47.672Z,5.60
2018-11-02T11:56:51.058Z,5.37
2018-11-02T11:57:54.469Z,5.78
2018-11-02T11:58:57.952Z,5.72
2018-11-02T12:00:01.479Z,5.10
2018-11-02T12:01:04.964Z,5.40
2018-11-02T12:02:08.443Z,5.53
2018-11-02T12:03:11.856Z,6.97
2018-11-02T12:04:15.303Z,6.42
2018-11-02T12:05:21.881Z,5.40
2018-11-02T12:06:25.289Z,5.30
2018-11-02T12:07:28.682Z,5.15
2018-11-02T12:08:32.131Z,4.50
2018-11-02T12:09:35.505Z,4.95
2018-11-02T12:10:38.880Z,4.78
2018-11-02T12:11:42.339Z,4.87
2018-11-02T12:12:45.877Z,5.37
2018-11-02T12:13:49.280Z,4.60
2018-11-02T12:14:52.686Z,4.62
2018-11-02T12:15:56.174Z,5.08
2018-11-02T12:16:59.590Z,4.70
2018-11-02T12:18:02.965Z,4.92
2018-11-02T12:19:06.688Z,4.60
2018-11-02T12:20:13.527Z,4.50
2018-11-02T12:21:17.072Z,4.70
2018-11-02T12:22:20.617Z,4.70
2018-11-02T12:23:24.008Z,5.30
2018-11-02T12:24:27.421Z,5.00
2018-11-02T12:25:30.820Z,5.35
2018-11-02T12:26:34.350Z,6.75
2018-11-02T12:27:38.438Z,10.32
2018-11-02T12:28:41.920Z,5.90
2018-11-02T12:29:45.244Z,6.55
2018-11-02T12:30:48.626Z,5.40
2018-11-02T12:31:52.005Z,5.47
2018-11-02T12:32:55.397Z,5.15
2018-11-02T12:33:58.857Z,4.58
2018-11-02T12:35:02.299Z,4.25
2018-11-02T12:36:05.800Z,4.60
2018-11-02T12:37:09.657Z,4.47
2018-11-02T12:38:13.049Z,4.03
2018-11-02T12:39:16.445Z,5.37
2018-11-02T12:40:21.009Z,6.55
2018-11-02T12:41:24.412Z,5.15
2018-11-02T12:42:28.268Z,4.30
2018-11-02T12:43:31.786Z,5.33
2018-11-02T12:44:35.084Z,4.67
2018-11-02T12:45:38.489Z,6.33
2018-11-02T12:46:41.916Z,4.58
2018-11-02T12:47:45.714Z,4.50
2018-11-02T12:48:49.706Z,3.58
2018-11-02T12:49:53.378Z,3.37
2018-11-02T12:50:56.506Z,3.20
2018-11-02T12:51:59.888Z,3.92
2018-11-02T12:53:03.281Z,3.35
2018-11-02T12:54:06.708Z,2.92
2018-11-02T12:55:10.753Z,3.55
2018-11-02T12:56:14.180Z,3.10
2018-11-02T12:57:17.812Z,3.10
2018-11-02T12:58:21.273Z,8.10
2018-11-02T12:59:24.647Z,3.40
2018-11-02T13:00:28.865Z,4.00
2018-11-02T13:01:32.263Z,3.50
2018-11-02T13:02:35.881Z,3.30
2018-11-02T13:03:39.399Z,3.35
2018-11-02T13:04:42.991Z,3.62
2018-11-02T13:05:46.389Z,3.50
2018-11-02T13:06:49.786Z,4.33
2018-11-02T13:07:53.286Z,3.58
2018-11-02T13:08:56.904Z,3.17
2018-11-02T13:10:00.504Z,3.00
2018-11-02T13:11:03.961Z,2.83
2018-11-02T13:12:07.575Z,3.20
2018-11-02T13:13:11.043Z,3.50
2018-11-02T13:14:14.528Z,5.10
2018-11-02T13:15:20.411Z,4.42
2018-11-02T13:16:24.025Z,4.42
2018-11-02T13:17:27.599Z,6.08
2018-11-02T13:18:30.942Z,4.37
2018-11-02T13:19:34.361Z,9.20
2018-11-02T13:20:37.765Z,4.85
2018-11-02T13:21:41.248Z,3.80
2018-11-02T13:22:45.433Z,4.10
2018-11-02T13:23:48.916Z,3.20
2018-11-02T13:24:52.325Z,3.20
2018-11-02T13:25:55.947Z,3.80
2018-11-02T13:26:59.235Z,3.40
2018-11-02T13:28:02.659Z,3.55
2018-11-02T13:29:06.101Z,3.35
2018-11-02T13:30:10.147Z,3.50
2018-11-02T13:31:13.599Z,3.22
2018-11-02T13:32:16.977Z,3.47
2018-11-02T13:33:20.483Z,3.37
2018-11-02T13:34:24.015Z,3.50
2018-11-02T13:35:27.411Z,3.50
2018-11-02T13:36:30.960Z,3.60
2018-11-02T13:37:34.243Z,3.35
2018-11-02T13:38:37.694Z,3.30
2018-11-02T13:39:41.102Z,3.02
2018-11-02T13:40:44.580Z,3.33
2018-11-02T13:41:48.087Z,2.90
2018-11-02T13:42:51.492Z,2.95
2018-11-02T13:43:55.065Z,2.87
2018-11-02T13:44:58.503Z,2.77
2018-11-02T13:46:01.952Z,2.83
2018-11-02T13:47:05.807Z,2.70
2018-11-02T13:48:09.188Z,2.77
2018-11-02T13:49:12.600Z,2.90
2018-11-02T13:50:16.070Z,3.20
2018-11-02T13:51:19.461Z,3.15
2018-11-02T13:52:22.983Z,3.92
2018-11-02T13:53:27.036Z,3.10
2018-11-02T13:54:30.431Z,2.87
2018-11-02T13:55:33.888Z,3.33
2018-11-02T13:56:37.295Z,3.33
2018-11-02T13:57:41.066Z,2.98
2018-11-02T13:58:44.515Z,3.47
2018-11-02T13:59:47.886Z,3.02
2018-11-02T14:00:51.284Z,3.10
2018-11-02T14:01:54.716Z,3.17
2018-11-02T14:02:58.214Z,2.92
2018-11-02T14:04:01.614Z,3.02
2018-11-02T14:05:05.990Z,3.02
2018-11-02T14:06:09.686Z,3.10
2018-11-02T14:07:13.088Z,3.05